Time;durP1;ratioP1;P1;durP2;ratioP2;P2;SDS_P1;SDS_P2;PMS_P1;PMS_P2;Temp;Humidity;BMP_temperature;BMP_pressure;BME280_temperature;BME280_humidity;BME280_pressure;Samples;Min_cycle;Max_cycle;Signal;HPM_P1;HPM_P2
2023/08/18 00:00:28;;;;;;;8.68;3.83;;;;;;;22.94;61.98;94671.53;4991552;28;20221;-77
2023/08/18 00:02:55;;;;;;;4.95;3.08;;;;;;;22.89;62.43;94656.16;4991779;28;20209;-78
2023/08/18 00:05:22;;;;;;;5.97;4.07;;;;;;;22.83;62.57;94670.81;4991596;28;20673;-79
2023/08/18 00:07:49;;;;;;;4.75;3.30;;;;;;;22.76;62.70;94659.78;4991678;28;20212;-77
2023/08/18 00:10:17;;;;;;;6.25;3.20;;;;;;;22.76;62.75;94662.53;4991675;28;20222;-76
2023/08/18 00:12:44;;;;;;;4.80;3.35;;;;;;;22.77;62.61;94666.91;4991447;28;20257;-77
2023/08/18 00:15:11;;;;;;;3.85;3.00;;;;;;;22.78;62.43;94662.97;4991411;28;20214;-77
2023/08/18 00:17:37;;;;;;;8.32;3.13;;;;;;;22.74;62.47;94662.16;4992063;28;20212;-76
2023/08/18 00:20:05;;;;;;;5.00;3.70;;;;;;;22.74;62.41;94656.63;4991351;28;20229;-77
2023/08/18 00:22:32;;;;;;;9.07;2.97;;;;;;;22.66;62.46;94648.41;5003076;28;20213;-77
2023/08/18 00:25:00;;;;;;;5.97;3.10;;;;;;;22.67;62.07;94652.75;4993425;28;20688;-77
2023/08/18 00:27:28;;;;;;;6.43;2.90;;;;;;;22.75;61.91;94647.16;4991517;28;20213;-77
2023/08/18 00:29:55;;;;;;;6.13;3.03;;;;;;;22.77;61.77;94658.63;4991064;28;20221;-77
2023/08/18 00:32:21;;;;;;;5.78;2.83;;;;;;;22.69;61.75;94655.88;4991748;28;20565;-76
2023/08/18 00:34:48;;;;;;;7.57;3.53;;;;;;;22.66;62.05;94651.16;4991580;28;20213;-76
2023/08/18 00:37:15;;;;;;;5.35;3.42;;;;;;;22.60;62.49;94652.78;4991802;28;20248;-77
2023/08/18 00:39:42;;;;;;;5.00;3.45;;;;;;;22.60;62.59;94647.25;4991666;28;20225;-77
2023/08/18 00:42:09;;;;;;;6.63;3.65;;;;;;;22.54;62.99;94648.09;4991348;28;20563;-76
2023/08/18 00:44:37;;;;;;;4.15;2.88;;;;;;;22.55;62.96;94644.91;4991104;28;20517;-78
2023/08/18 00:47:04;;;;;;;4.15;3.17;;;;;;;22.54;62.82;94643.34;5003803;28;20256;-78
2023/08/18 00:49:31;;;;;;;4.38;2.47;;;;;;;22.54;62.65;94642.56;4991412;28;20205;-76
2023/08/18 00:51:58;;;;;;;7.13;3.17;;;;;;;22.50;62.71;94642.59;4995340;28;20213;-76
2023/08/18 00:54:28;;;;;;;5.88;3.20;;;;;;;22.48;62.60;94639.44;4994905;28;20217;-76
2023/08/18 00:56:55;;;;;;;4.97;2.72;;;;;;;22.50;62.49;94639.81;4995093;28;20625;-77
2023/08/18 00:59:23;;;;;;;7.72;2.78;;;;;;;22.50;62.46;94634.31;4994839;28;20252;-77
2023/08/18 01:01:51;;;;;;;6.00;2.90;;;;;;;22.54;62.24;94648.09;4995979;28;20237;-78
2023/08/18 01:04:18;;;;;;;3.58;2.97;;;;;;;22.55;62.04;94644.91;5014657;28;20208;-76
2023/08/18 01:06:44;;;;;;;5.03;2.85;;;;;;;22.55;62.29;94644.91;5001702;28;20667;-77
2023/08/18 01:09:11;;;;;;;4.65;2.83;;;;;;;22.50;62.42;94634.31;5006144;28;20212;-76
2023/08/18 01:11:48;;;;;;;4.30;2.65;;;;;;;22.50;62.67;94631.53;4995090;28;20252;-75
2023/08/18 01:14:27;;;;;;;6.05;2.88;;;;;;;22.49;63.01;94652.06;4994418;28;20292;-76
2023/08/18 01:17:06;;;;;;;3.50;2.90;;;;;;;22.45;63.05;94631.94;4994477;28;20216;-77
2023/08/18 01:19:33;;;;;;;5.72;3.00;;;;;;;22.42;63.12;94641.03;4994525;28;20268;-77
2023/08/18 01:22:02;;;;;;;4.63;2.25;;;;;;;22.48;63.04;94650.47;4995070;28;20217;-78
2023/08/18 01:24:30;;;;;;;5.65;3.35;;;;;;;22.49;63.08;94646.53;4994696;28;20654;-76
2023/08/18 01:26:57;;;;;;;3.35;2.92;;;;;;;22.50;63.04;94639.81;4994850;28;20572;-75
2023/08/18 01:29:27;;;;;;;5.63;2.75;;;;;;;22.43;63.43;94642.59;4994013;28;20205;-78
2023/08/18 01:32:00;;;;;;;5.53;2.65;;;;;;;22.44;63.40;94654.44;4994298;28;20205;-75
2023/08/18 01:34:30;;;;;;;7.75;3.35;;;;;;;22.33;63.88;94640.69;4994082;28;20206;-75
2023/08/18 01:37:00;;;;;;;9.05;3.40;;;;;;;22.28;64.07;94646.63;4994416;28;20625;-76
2023/08/18 01:39:29;;;;;;;4.72;3.13;;;;;;;22.22;64.49;94651.00;4994147;28;20623;-77
2023/08/18 01:41:57;;;;;;;4.32;3.13;;;;;;;22.12;64.91;94649.09;4994194;28;20214;-76
2023/08/18 01:44:24;;;;;;;4.60;3.10;;;;;;;22.12;64.91;94649.09;4993632;28;20236;-74
2023/08/18 01:46:51;;;;;;;7.28;3.63;;;;;;;22.04;65.38;94650.28;4994263;28;20561;-76
2023/08/18 01:49:18;;;;;;;4.10;3.15;;;;;;;22.03;65.52;94654.25;4993702;28;20288;-75
2023/08/18 01:51:44;;;;;;;8.13;4.10;;;;;;;21.93;65.86;94648.34;4994344;28;20635;-75
2023/08/18 01:54:11;;;;;;;9.07;3.47;;;;;;;21.90;65.78;94643.63;4993479;28;20237;-76
2023/08/18 01:56:38;;;;;;;3.85;3.40;;;;;;;21.84;66.13;94647.97;4993810;28;20213;-76
2023/08/18 01:59:06;;;;;;;7.22;3.75;;;;;;;21.82;66.27;94644.84;4993514;28;20320;-76
2023/08/18 02:01:33;;;;;;;6.70;3.53;;;;;;;21.80;66.30;94641.69;4992897;28;20220;-77
2023/08/18 02:04:00;;;;;;;6.50;3.28;;;;;;;21.77;66.42;94642.47;4993740;28;20213;-75
2023/08/18 02:06:27;;;;;;;8.60;3.80;;;;;;;21.76;66.49;94635.38;4993806;28;20217;-75
2023/08/18 02:08:53;;;;;;;4.95;3.50;;;;;;;21.68;66.69;94631.09;4993690;28;20228;-76
2023/08/18 02:11:20;;;;;;;3.72;2.80;;;;;;;21.67;66.67;94624.00;4993609;28;20299;-75
2023/08/18 02:13:47;;;;;;;8.23;3.28;;;;;;;21.69;66.34;94621.63;4992940;28;20612;-75
2023/08/18 02:16:15;;;;;;;7.63;3.60;;;;;;;21.65;66.87;94620.84;4993052;28;20214;-75
2023/08/18 02:18:42;;;;;;;4.75;3.78;;;;;;;21.63;66.91;94617.69;4992979;28;20243;-76
2023/08/18 02:21:09;;;;;;;3.90;3.22;;;;;;;21.59;67.23;94616.94;4993429;28;20634;-75
2023/08/18 02:23:35;;;;;;;8.40;3.70;;;;;;;21.54;67.47;94614.59;4993837;28;20241;-76
2023/08/18 02:26:04;;;;;;;5.60;3.63;;;;;;;21.56;67.28;94617.72;4993431;28;20681;-76
2023/08/18 02:28:31;;;;;;;6.03;3.33;;;;;;;21.53;67.51;94613.00;4986894;28;20205;-74
2023/08/18 02:31:00;;;;;;;5.78;3.90;;;;;;;21.49;67.68;94612.22;4999273;28;20676;-76
2023/08/18 02:33:29;;;;;;;4.10;3.63;;;;;;;21.51;67.45;94615.38;4993106;28;20221;-76
2023/08/18 02:35:58;;;;;;;10.48;4.13;;;;;;;21.52;67.59;94611.44;4993186;28;20272;-76
2023/08/18 02:38:25;;;;;;;4.55;3.30;;;;;;;21.53;67.30;94615.75;4992688;28;20268;-75
2023/08/18 02:40:52;;;;;;;5.63;3.20;;;;;;;21.53;67.10;94618.53;4993210;28;20233;-76
2023/08/18 02:43:20;;;;;;;6.00;3.63;;;;;;;21.53;66.88;94613.00;5000730;28;20213;-77
2023/08/18 02:45:47;;;;;;;5.00;3.78;;;;;;;21.55;66.86;94614.19;4997731;28;20216;-75
2023/08/18 02:48:14;;;;;;;4.68;3.13;;;;;;;21.54;66.63;94617.34;4992759;28;20584;-76
2023/08/18 02:50:42;;;;;;;4.28;3.05;;;;;;;21.54;66.81;94620.09;4992691;28;20274;-76
2023/08/18 02:53:09;;;;;;;4.60;3.25;;;;;;;21.50;66.66;94613.78;4992948;28;20317;-76
2023/08/18 02:55:36;;;;;;;6.25;3.33;;;;;;;21.53;66.56;94613.00;4992574;28;20205;-76
2023/08/18 02:58:03;;;;;;;6.35;3.50;;;;;;;21.57;66.20;94619.31;4992793;28;20241;-76
2023/08/18 03:00:31;;;;;;;3.25;2.45;;;;;;;21.58;66.26;94612.59;4992190;28;20285;-76
2023/08/18 03:02:58;;;;;;;5.07;3.20;;;;;;;21.57;66.43;94608.28;4993037;28;20209;-76
2023/08/18 03:05:25;;;;;;;6.53;3.53;;;;;;;21.53;66.47;94613.00;4992336;28;20213;-76
2023/08/18 03:07:53;;;;;;;5.75;3.70;;;;;;;21.58;66.36;94618.91;4992507;28;20221;-76
2023/08/18 03:10:20;;;;;;;3.75;2.85;;;;;;;21.55;66.30;94621.66;4992235;28;20213;-77
2023/08/18 03:12:47;;;;;;;7.35;3.60;;;;;;;21.52;66.72;94617.72;4992105;28;20249;-76
2023/08/18 03:15:14;;;;;;;5.57;3.35;;;;;;;21.42;66.97;94603.97;4992098;28;20221;-76
2023/08/18 03:17:41;;;;;;;7.15;3.45;;;;;;;21.42;67.04;94618.56;4992374;28;20213;-76
2023/08/18 03:20:09;;;;;;;8.75;3.80;;;;;;;21.32;67.53;94616.59;4992048;28;20252;-76
2023/08/18 03:22:36;;;;;;;4.75;3.17;;;;;;;21.31;67.63;94620.53;4992654;28;20209;-77
2023/08/18 03:25:05;;;;;;;7.03;3.38;;;;;;;21.22;67.95;94620.94;4992113;28;20250;-77
2023/08/18 03:27:32;;;;;;;5.47;3.50;;;;;;;21.19;68.43;94632.75;4992442;28;20630;-77
2023/08/18 03:29:59;;;;;;;4.55;3.42;;;;;;;21.21;68.18;94624.06;4991977;28;20553;-75
2023/08/18 03:32:26;;;;;;;6.25;3.50;;;;;;;21.21;68.19;94626.84;4991604;28;20213;-75
2023/08/18 03:34:54;;;;;;;5.28;3.22;;;;;;;21.17;68.25;94624.06;4992248;28;20220;-75
2023/08/18 03:37:21;;;;;;;7.53;3.38;;;;;;;21.11;68.50;94620.13;4991866;28;20260;-75
2023/08/18 03:39:48;;;;;;;6.43;4.03;;;;;;;21.07;68.83;94632.31;4991271;28;20229;-75
2023/08/18 03:42:16;;;;;;;7.22;3.90;;;;;;;21.05;68.80;94627.22;4991589;28;20209;-75
2023/08/18 03:44:43;;;;;;;5.25;3.90;;;;;;;21.02;68.78;94617.00;4979195;28;20629;-76
2023/08/18 03:47:09;;;;;;;7.50;3.40;;;;;;;21.10;68.70;94624.06;4991373;28;20217;-76
2023/08/18 03:49:36;;;;;;;10.40;3.78;;;;;;;21.13;68.47;94612.25;4991902;28;20234;-75
2023/08/18 03:52:03;;;;;;;6.32;3.47;;;;;;;21.21;68.22;94615.81;4991912;28;20210;-76
2023/08/18 03:54:31;;;;;;;5.97;3.65;;;;;;;21.31;67.69;94628.03;4991976;28;20567;-77
2023/08/18 03:56:58;;;;;;;5.18;4.00;;;;;;;21.40;67.53;94625.63;4991533;28;20297;-76
2023/08/18 03:59:26;;;;;;;4.55;3.40;;;;;;;21.60;66.83;94618.50;4991234;28;20247;-76
2023/08/18 04:01:53;;;;;;;5.05;3.20;;;;;;;21.70;66.33;94623.22;4991495;28;20264;-76
2023/08/18 04:04:20;;;;;;;5.90;4.55;;;;;;;21.90;66.00;94621.53;4991357;28;20605;-76
2023/08/18 04:06:46;;;;;;;8.55;3.65;;;;;;;22.05;65.39;94622.31;4991594;28;20536;-76
2023/08/18 04:09:15;;;;;;;4.03;3.15;;;;;;;22.23;64.99;94627.75;4991024;28;20209;-76
2023/08/18 04:11:42;;;;;;;10.45;3.78;;;;;;;22.36;64.45;94626.09;4991500;28;20210;-76
2023/08/18 04:14:09;;;;;;;3.78;3.38;;;;;;;22.49;63.78;94629.97;4991005;28;20249;-77
2023/08/18 04:16:38;;;;;;;5.07;3.50;;;;;;;22.71;63.40;94630.59;4991640;28;20738;-76
2023/08/18 04:19:05;;;;;;;6.80;3.85;;;;;;;22.57;63.44;94631.47;4991326;28;20300;-77
2023/08/18 04:21:32;;;;;;;5.45;4.03;;;;;;;22.61;62.93;94626.72;4991574;28;20210;-76
2023/08/18 04:23:59;;;;;;;5.72;3.63;;;;;;;22.85;62.25;94632.50;4992204;28;20248;-76
2023/08/18 04:26:28;;;;;;;5.82;3.97;;;;;;;23.31;60.79;94632.16;4990675;28;20216;-76
2023/08/18 04:28:54;;;;;;;17.70;5.40;;;;;;;23.57;59.92;94625.19;4991488;28;20220;-76
2023/08/18 04:31:21;;;;;;;5.90;4.28;;;;;;;23.87;59.24;94622.50;4990900;28;20213;-76
2023/08/18 04:33:49;;;;;;;4.55;3.40;;;;;;;23.95;59.08;94628.72;4991351;28;20205;-77
2023/08/18 04:36:17;;;;;;;4.28;3.88;;;;;;;24.19;58.38;94627.63;4990783;28;20221;-77
2023/08/18 04:38:44;;;;;;;6.20;4.28;;;;;;;24.54;57.45;94629.19;4991243;28;20220;-76
2023/08/18 04:41:11;;;;;;;5.22;4.03;;;;;;;24.46;57.58;94636.03;4990763;28;20233;-76
2023/08/18 04:43:38;;;;;;;5.45;4.20;;;;;;;24.74;56.72;94630.06;4991550;28;20213;-76
2023/08/18 04:46:04;;;;;;;4.68;4.13;;;;;;;24.95;56.16;94628.22;4991527;28;20217;-77
2023/08/18 04:48:31;;;;;;;8.25;3.88;;;;;;;25.30;54.90;94633.19;4991323;28;20236;-77
2023/08/18 04:50:59;;;;;;;10.00;4.18;;;;;;;25.80;53.39;94624.78;4991166;28;20202;-78
2023/08/18 04:53:26;;;;;;;7.03;3.63;;;;;;;26.21;52.44;94631.94;4991331;28;20295;-77
2023/08/18 04:55:53;;;;;;;7.43;4.05;;;;;;;26.13;52.54;94638.81;4991552;28;20230;-77
2023/08/18 04:58:20;;;;;;;5.60;4.20;;;;;;;26.00;53.27;94635.13;4991104;28;20582;-77
2023/08/18 05:00:47;;;;;;;4.07;3.42;;;;;;;26.53;51.69;94631.25;4991344;28;20578;-76
2023/08/18 05:03:14;;;;;;;4.35;2.97;;;;;;;26.74;51.19;94633.59;4990861;28;20264;-77
2023/08/18 05:05:46;;;;;;;5.72;3.95;;;;;;;26.98;50.26;94636.25;4991385;28;20210;-77
2023/08/18 05:08:14;;;;;;;4.78;3.88;;;;;;;27.25;50.38;94639.56;4991109;28;20676;-77
2023/08/18 05:10:41;;;;;;;6.20;4.07;;;;;;;27.69;49.37;94637.31;4991262;28;20198;-78
2023/08/18 05:13:08;;;;;;;5.75;3.83;;;;;;;26.69;50.90;94647.97;4990420;28;20304;-79
2023/08/18 05:15:35;;;;;;;8.68;4.28;;;;;;;26.50;51.89;94640.47;4991197;28;20260;-77
2023/08/18 05:18:02;;;;;;;5.30;4.38;;;;;;;26.56;51.78;94633.19;4991068;28;20218;-77
2023/08/18 05:20:29;;;;;;;7.43;4.07;;;;;;;27.07;50.53;94655.88;4990355;28;20236;-77
2023/08/18 05:22:55;;;;;;;6.82;4.65;;;;;;;26.41;52.94;94648.59;4991017;28;20561;-76
2023/08/18 05:25:26;;;;;;;5.95;4.75;;;;;;;27.03;51.27;94656.00;4990742;28;20213;-78
2023/08/18 05:27:53;;;;;;;7.25;4.75;;;;;;;27.22;51.02;94654.34;4991335;28;20569;-77
2023/08/18 05:30:20;;;;;;;6.53;4.35;;;;;;;27.41;50.40;94653.47;4990678;28;20213;-77
2023/08/18 05:32:46;;;;;;;7.97;4.22;;;;;;;28.26;48.78;94654.06;4990927;28;20205;-77
2023/08/18 05:35:13;;;;;;;10.48;4.70;;;;;;;28.07;48.48;94657.75;4990360;28;20213;-79
2023/08/18 05:37:40;;;;;;;7.93;4.82;;;;;;;27.16;49.90;94659.66;4992434;28;20213;-79
2023/08/18 05:40:08;;;;;;;6.55;4.00;;;;;;;27.20;50.89;94659.53;4994240;28;20237;-77
2023/08/18 05:42:36;;;;;;;7.18;4.18;;;;;;;27.51;50.16;94657.97;4994557;28;20621;-77
2023/08/18 05:45:05;;;;;;;5.57;4.38;;;;;;;27.85;49.36;94653.97;5003731;28;20221;-76
2023/08/18 05:47:32;;;;;;;9.65;4.40;;;;;;;28.54;48.27;94648.91;4997165;28;20231;-76
2023/08/18 05:49:59;;;;;;;13.02;4.70;;;;;;;28.50;47.62;94660.16;4994175;28;20214;-77
2023/08/18 05:52:26;;;;;;;6.78;4.38;;;;;;;28.13;48.67;94658.78;4994468;28;20280;-77
2023/08/18 05:54:54;;;;;;;8.30;4.35;;;;;;;28.86;47.00;94648.72;4994160;28;20213;-77
2023/08/18 05:57:21;;;;;;;6.00;4.63;;;;;;;28.26;48.04;94656.84;4994256;28;20209;-78
2023/08/18 05:59:49;;;;;;;7.03;3.97;;;;;;;28.23;48.44;94657.72;4994136;28;20561;-76
2023/08/18 06:02:16;;;;;;;6.97;3.88;;;;;;;28.62;47.48;94658.59;4993408;28;20221;-78
2023/08/18 06:04:43;;;;;;;5.10;4.18;;;;;;;28.54;47.84;94665.63;4993738;28;20220;-76
2023/08/18 06:07:11;;;;;;;6.00;4.30;;;;;;;28.82;47.16;94653.66;4993361;28;20276;-78
2023/08/18 06:09:45;;;;;;;6.75;4.32;;;;;;;29.18;46.05;94656.09;4993941;28;20205;-76
2023/08/18 06:12:12;;;;;;;6.38;4.13;;;;;;;28.96;46.59;94664.38;5006712;28;20205;-76
2023/08/18 06:14:39;;;;;;;9.07;4.43;;;;;;;29.17;46.16;94653.75;4993474;28;20214;-77
2023/08/18 06:17:07;;;;;;;4.55;3.72;;;;;;;29.73;45.33;94658.72;4993764;28;20260;-77
2023/08/18 06:19:34;;;;;;;8.00;4.32;;;;;;;30.34;43.79;94647.03;4993335;28;20268;-76
2023/08/18 06:22:01;;;;;;;9.40;4.45;;;;;;;30.61;43.64;94654.84;4993374;28;20237;-76
2023/08/18 06:24:28;;;;;;;6.80;4.13;;;;;;;30.36;42.34;94656.50;4993480;28;20217;-77
2023/08/18 06:26:54;;;;;;;4.53;3.80;;;;;;;29.89;44.36;94655.78;4993381;28;20267;-77
2023/08/18 06:29:21;;;;;;;9.98;4.05;;;;;;;30.75;42.09;94655.06;4993104;28;20348;-77
2023/08/18 06:31:48;;;;;;;4.63;3.85;;;;;;;30.00;43.25;94661.81;4993297;28;20612;-77
2023/08/18 06:34:16;;;;;;;8.57;4.60;;;;;;;29.41;44.58;94660.56;5006390;28;20312;-77
2023/08/18 06:36:44;;;;;;;5.82;3.80;;;;;;;29.51;44.28;94675.44;4993384;28;20264;-79
2023/08/18 06:39:11;;;;;;;7.03;3.97;;;;;;;29.14;45.41;94663.03;4993689;28;20244;-79
2023/08/18 06:41:39;;;;;;;6.70;4.20;;;;;;;29.54;44.74;94663.34;4993948;28;20567;-76
2023/08/18 06:44:07;;;;;;;11.10;3.50;;;;;;;30.33;43.80;94656.66;4993161;28;20300;-77
2023/08/18 06:46:34;;;;;;;8.02;3.90;;;;;;;30.17;42.67;94671.59;4993356;28;20228;-79
2023/08/18 06:49:01;;;;;;;5.97;4.03;;;;;;;30.26;43.45;94660.47;4992839;28;20209;-77
2023/08/18 06:51:29;;;;;;;8.05;4.30;;;;;;;30.49;41.74;94670.41;4993030;28;20216;-77
2023/08/18 06:53:56;;;;;;;4.82;3.75;;;;;;;29.62;42.99;94668.25;4993466;28;20545;-77
2023/08/18 06:56:23;;;;;;;5.22;3.58;;;;;;;30.81;42.22;94658.06;4993425;28;20212;-77
2023/08/18 06:58:50;;;;;;;4.70;3.58;;;;;;;30.90;41.09;94660.13;4993043;28;20213;-77
2023/08/18 07:01:17;;;;;;;4.95;3.58;;;;;;;30.83;40.92;94661.19;4993069;28;20662;-79
2023/08/18 07:03:43;;;;;;;7.22;3.45;;;;;;;30.43;40.96;94668.69;4992580;28;20228;-77
2023/08/18 07:06:12;;;;;;;6.90;3.60;;;;;;;29.71;42.73;94667.56;4993004;28;20217;-78
2023/08/18 07:08:40;;;;;;;6.60;3.45;;;;;;;30.42;41.99;94661.53;4992666;28;20230;-76
2023/08/18 07:11:07;;;;;;;4.60;3.78;;;;;;;31.10;40.60;94646.59;4992769;28;20558;-76
2023/08/18 07:13:35;;;;;;;6.82;3.70;;;;;;;31.53;40.24;94651.25;4992191;28;20249;-77
2023/08/18 07:16:03;;;;;;;8.43;3.83;;;;;;;31.39;40.79;94646.22;4992906;28;20273;-77
2023/08/18 07:18:30;;;;;;;7.30;3.70;;;;;;;31.16;41.14;94649.56;4992970;28;20217;-76
2023/08/18 07:20:58;;;;;;;6.50;3.75;;;;;;;31.47;40.23;94647.47;4993113;28;20232;-76
2023/08/18 07:23:25;;;;;;;7.53;3.50;;;;;;;31.40;39.86;94647.78;4992299;28;20225;-76
2023/08/18 07:25:54;;;;;;;6.75;3.67;;;;;;;31.14;41.24;94652.81;4993042;28;20228;-77
2023/08/18 07:28:21;;;;;;;4.82;3.88;;;;;;;31.38;40.95;94650.25;4992317;28;20213;-77
2023/08/18 07:30:48;;;;;;;5.70;3.83;;;;;;;31.62;39.89;94654.06;4992802;28;20330;-80
2023/08/18 07:33:15;;;;;;;4.65;3.42;;;;;;;30.67;40.92;94653.00;4992140;28;20570;-77
2023/08/18 07:35:42;;;;;;;5.68;3.65;;;;;;;30.83;41.07;94649.22;4992437;28;20216;-76
2023/08/18 07:38:09;;;;;;;5.50;3.40;;;;;;;31.30;40.90;94651.78;4992152;28;20218;-75
2023/08/18 07:40:35;;;;;;;4.20;3.50;;;;;;;30.60;41.65;94656.09;4991771;28;20233;-77
2023/08/18 07:43:03;;;;;;;7.43;3.42;;;;;;;30.35;41.19;94657.72;4992120;28;20220;-76
2023/08/18 07:45:30;;;;;;;5.20;4.00;;;;;;;30.35;41.94;94648.56;4992205;28;20210;-75
2023/08/18 07:47:58;;;;;;;5.75;3.65;;;;;;;30.12;42.14;94663.00;4992566;28;20638;-78
2023/08/18 07:50:25;;;;;;;5.43;3.70;;;;;;;31.13;40.73;94647.69;4991947;28;20320;-77
2023/08/18 07:52:51;;;;;;;4.55;3.40;;;;;;;31.21;40.25;94652.53;4992339;28;20621;-76
2023/08/18 07:55:21;;;;;;;3.95;3.15;;;;;;;31.01;40.49;94652.91;4992253;28;20622;-76
2023/08/18 07:57:48;;;;;;;3.95;3.47;;;;;;;29.79;42.68;94663.31;4974803;28;20252;-77
2023/08/18 08:00:22;;;;;;;8.48;3.65;;;;;;;29.02;44.23;94655.44;4991220;28;20209;-79
2023/08/18 08:02:49;;;;;;;6.28;3.33;;;;;;;30.27;42.38;94653.66;4992720;28;20213;-77
2023/08/18 08:05:17;;;;;;;6.03;3.60;;;;;;;31.32;40.33;94643.69;4991435;28;20220;-76
2023/08/18 08:07:44;;;;;;;6.28;3.60;;;;;;;31.19;40.81;94648.63;4991809;28;20210;-76
2023/08/18 08:10:11;;;;;;;4.07;3.60;;;;;;;31.16;40.83;94652.38;4991702;28;20293;-76
2023/08/18 08:12:38;;;;;;;4.25;3.55;;;;;;;31.64;40.72;94650.78;4991523;28;20725;-76
2023/08/18 08:15:08;;;;;;;6.15;3.63;;;;;;;31.34;40.13;94639.19;4991550;28;20693;-76
2023/08/18 08:17:36;;;;;;;5.07;3.50;;;;;;;31.24;39.54;94645.22;4991455;28;20221;-76
2023/08/18 08:20:07;;;;;;;4.72;2.60;;;;;;;30.55;38.76;94642.69;4991550;28;20205;-75
2023/08/18 08:22:34;;;;;;;4.85;3.10;;;;;;;30.30;39.67;94633.19;4991527;28;20229;-76
2023/08/18 08:25:01;;;;;;;4.82;3.58;;;;;;;30.20;39.52;94637.16;4991392;28;20209;-78
2023/08/18 08:27:28;;;;;;;3.42;2.83;;;;;;;29.95;39.40;94642.78;4991934;28;20559;-82
2023/08/18 08:29:54;;;;;;;3.53;2.72;;;;;;;29.48;39.73;94632.44;4991928;28;20248;-76
2023/08/18 08:32:21;;;;;;;5.30;2.83;;;;;;;29.46;39.56;94634.91;4991628;28;20206;-76
2023/08/18 08:34:53;;;;;;;5.28;2.65;;;;;;;30.16;38.88;94630.91;4991609;28;20629;-77
2023/08/18 08:37:20;;;;;;;4.97;3.10;;;;;;;30.14;38.70;94627.78;4991189;28;20209;-79
2023/08/18 08:39:47;;;;;;;4.18;2.90;;;;;;;29.43;39.58;94624.63;4991370;28;20217;-76
2023/08/18 08:42:14;;;;;;;5.90;2.75;;;;;;;29.60;38.77;94628.84;4991420;28;20295;-76
2023/08/18 08:44:42;;;;;;;5.63;2.90;;;;;;;29.67;38.43;94628.56;4998215;28;20208;-77
2023/08/18 08:47:09;;;;;;;3.75;2.72;;;;;;;29.61;38.75;94633.19;4997712;28;20216;-74
2023/08/18 08:49:37;;;;;;;7.53;2.78;;;;;;;30.32;37.60;94627.13;4991047;28;20220;-77
2023/08/18 08:52:08;;;;;;;4.70;2.95;;;;;;;30.40;37.92;94626.41;4991304;28;20220;-76
2023/08/18 08:54:39;;;;;;;6.13;2.97;;;;;;;30.51;37.69;94633.59;4990826;28;21027;-77
2023/08/18 08:57:09;;;;;;;4.90;3.13;;;;;;;29.99;38.40;94619.13;4990912;28;20209;-76
2023/08/18 08:59:36;;;;;;;3.17;2.88;;;;;;;29.81;38.49;94632.91;4990958;28;20304;-75
2023/08/18 09:02:03;;;;;;;4.30;2.97;;;;;;;30.11;39.20;94628.69;4991350;28;20241;-76
2023/08/18 09:04:30;;;;;;;7.93;2.90;;;;;;;30.44;38.22;94614.31;4990945;28;20686;-77
2023/08/18 09:06:57;;;;;;;3.00;2.70;;;;;;;30.47;37.66;94628.16;4991069;28;20218;-77
2023/08/18 09:09:26;;;;;;;4.15;2.25;;;;;;;30.49;37.53;94622.09;4973444;28;20229;-76
2023/08/18 09:12:05;;;;;;;8.52;2.67;;;;;;;30.48;37.31;94607.34;4992794;28;20209;-75
2023/08/18 09:14:34;;;;;;;3.00;2.10;;;;;;;30.51;36.78;94622.41;4994641;28;20239;-76
2023/08/18 09:17:01;;;;;;;7.32;2.90;;;;;;;30.10;37.36;94610.34;4994892;28;20213;-76
2023/08/18 09:19:30;;;;;;;5.57;2.22;;;;;;;29.82;37.65;94609.31;4994373;28;20244;-75
2023/08/18 09:21:58;;;;;;;2.88;2.38;;;;;;;29.61;38.05;94621.25;4994171;28;20229;-78
2023/08/18 09:24:29;;;;;;;4.50;2.78;;;;;;;29.75;38.34;94619.97;4994463;28;20671;-75
2023/08/18 09:27:06;;;;;;;5.25;2.90;;;;;;;29.82;38.61;94616.91;4994196;28;20224;-75
2023/08/18 09:29:34;;;;;;;5.78;2.60;;;;;;;30.40;37.81;94606.84;5007339;28;20197;-75
2023/08/18 09:32:01;;;;;;;5.55;3.00;;;;;;;29.82;38.18;94612.09;4994341;28;20332;-75
2023/08/18 09:34:30;;;;;;;5.53;2.75;;;;;;;29.75;39.26;94612.38;4994145;28;20218;-75
2023/08/18 09:36:57;;;;;;;8.23;3.20;;;;;;;30.08;38.49;94610.00;4994148;28;20209;-75
2023/08/18 09:39:26;;;;;;;7.00;2.50;;;;;;;30.27;38.11;94614.50;4993818;28;20308;-75
2023/08/18 09:41:54;;;;;;;4.38;2.60;;;;;;;30.54;37.97;94610.34;4993761;28;20234;-76
2023/08/18 09:44:22;;;;;;;6.07;2.58;;;;;;;30.54;37.91;94605.56;4994080;28;20572;-76
2023/08/18 09:46:51;;;;;;;6.80;2.83;;;;;;;30.64;37.91;94615.53;4993815;28;20236;-76
2023/08/18 09:49:20;;;;;;;5.18;2.45;;;;;;;30.64;37.98;94609.94;4993711;28;20209;-75
2023/08/18 09:51:47;;;;;;;5.22;3.00;;;;;;;30.68;37.64;94616.19;4994141;28;20209;-76
2023/08/18 09:54:18;;;;;;;4.40;2.90;;;;;;;30.03;38.44;94611.41;4994280;28;20264;-76
2023/08/18 09:56:49;;;;;;;6.30;2.83;;;;;;;30.52;38.70;94613.59;4994194;28;20205;-76
2023/08/18 09:59:21;;;;;;;4.28;2.97;;;;;;;30.84;37.62;94598.41;4994464;28;20263;-78
2023/08/18 10:01:51;;;;;;;5.10;2.75;;;;;;;31.33;37.12;94604.03;4994167;28;20305;-76
2023/08/18 10:04:24;;;;;;;4.95;2.47;;;;;;;31.34;36.20;94602.78;4994587;28;20318;-77
2023/08/18 10:06:53;;;;;;;4.32;2.47;;;;;;;31.54;35.82;94607.19;4994356;28;20248;-76
2023/08/18 10:09:22;;;;;;;5.25;2.53;;;;;;;31.55;36.36;94608.75;4976655;28;20206;-76
2023/08/18 10:11:51;;;;;;;6.28;2.60;;;;;;;31.30;36.59;94598.56;4994094;28;20206;-75
2023/08/18 10:14:20;;;;;;;4.15;2.80;;;;;;;30.86;37.02;94615.50;4993816;28;20287;-76
2023/08/18 10:16:49;;;;;;;3.80;2.45;;;;;;;30.54;37.47;94610.34;4993867;28;20213;-75
2023/08/18 10:19:16;;;;;;;4.88;2.90;;;;;;;30.92;37.38;94610.84;4994352;28;20639;-75
2023/08/18 10:21:43;;;;;;;4.45;2.70;;;;;;;31.32;36.56;94601.69;4993807;28;20233;-76
2023/08/18 10:24:11;;;;;;;5.07;3.00;;;;;;;31.33;36.29;94608.84;4993692;28;20283;-75
2023/08/18 10:26:43;;;;;;;8.30;3.38;;;;;;;30.52;36.80;94601.63;4976031;28;20678;-74
2023/08/18 10:29:18;;;;;;;3.63;2.72;;;;;;;30.69;37.12;94600.19;4994319;28;20213;-75
2023/08/18 10:31:49;;;;;;;4.15;2.72;;;;;;;30.70;37.48;94596.94;4993477;28;20205;-75
2023/08/18 10:34:22;;;;;;;3.75;3.00;;;;;;;31.06;36.88;94601.91;4993959;28;20300;-76
2023/08/18 10:36:49;;;;;;;8.65;3.10;;;;;;;31.34;36.63;94604.81;4994125;28;20583;-75
2023/08/18 10:39:25;;;;;;;5.72;3.20;;;;;;;31.93;36.28;94606.34;4993982;28;20575;-75
2023/08/18 10:42:07;;;;;;;5.07;3.15;;;;;;;31.65;36.39;94597.13;4993549;28;20224;-75
2023/08/18 10:44:35;;;;;;;4.35;3.05;;;;;;;31.72;36.00;94602.41;4993197;28;20209;-74
2023/08/18 10:47:03;;;;;;;6.78;3.00;;;;;;;31.85;35.79;94595.88;4993871;28;20272;-74
2023/08/18 10:49:32;;;;;;;4.68;3.00;;;;;;;31.63;36.80;94599.59;4993641;28;20677;-76
2023/08/18 10:52:03;;;;;;;6.68;2.90;;;;;;;32.07;35.65;94593.72;4993224;28;20296;-75
2023/08/18 10:54:30;;;;;;;4.05;3.10;;;;;;;31.67;35.71;94611.47;4993451;28;20296;-75
2023/08/18 10:56:57;;;;;;;5.43;2.90;;;;;;;31.33;36.00;94592.06;4993325;28;20213;-77
2023/08/18 10:59:24;;;;;;;3.33;3.00;;;;;;;31.74;35.84;94591.53;4992682;28;20210;-74
2023/08/18 11:01:54;;;;;;;3.63;2.83;;;;;;;32.03;35.53;94595.91;4993424;28;20225;-75
2023/08/18 11:04:21;;;;;;;8.90;3.03;;;;;;;31.87;35.87;94582.97;4993544;28;20221;-75
2023/08/18 11:06:50;;;;;;;4.55;2.65;;;;;;;32.16;34.48;94588.09;4993474;28;20224;-75
2023/08/18 11:09:18;;;;;;;5.00;3.58;;;;;;;31.54;35.92;94596.78;4993357;28;20681;-75
2023/08/18 11:11:44;;;;;;;5.32;2.88;;;;;;;31.32;35.84;94590.50;4992542;28;20249;-74
2023/08/18 11:14:13;;;;;;;6.10;3.40;;;;;;;31.09;36.59;94584.22;4992838;28;20245;-75
2023/08/18 11:16:41;;;;;;;9.50;3.08;;;;;;;31.48;36.52;94579.03;4992446;28;20260;-74
2023/08/18 11:19:09;;;;;;;4.93;2.95;;;;;;;31.54;36.31;94582.78;4992541;28;20209;-74
2023/08/18 11:21:37;;;;;;;7.60;3.00;;;;;;;31.16;36.28;94583.16;4992233;28;20221;-75
2023/08/18 11:24:07;;;;;;;4.43;3.28;;;;;;;31.37;36.20;94592.69;4992791;28;20198;-75
2023/08/18 11:26:36;;;;;;;4.97;2.70;;;;;;;31.09;36.12;94586.22;4992526;28;20662;-75
2023/08/18 11:29:05;;;;;;;4.47;2.80;;;;;;;31.37;36.01;94578.69;4992790;28;20566;-75
2023/08/18 11:31:32;;;;;;;4.88;2.85;;;;;;;31.79;35.58;94581.72;4992445;28;20292;-75
2023/08/18 11:33:59;;;;;;;3.55;2.63;;;;;;;32.17;34.89;94575.63;4993079;28;20264;-75
2023/08/18 11:36:31;;;;;;;4.10;3.05;;;;;;;32.49;34.39;94574.22;4992444;28;20574;-75